Time,TemperatureF,DewpointF,PressureIn,WindDirection,WindDirectionDegrees,WindSpeedMPH,WindSpeedGustMPH,Humidity,HourlyPrecipIn,Conditions,Clouds,dailyrainin,SoftwareType,DateUTC
2013-01-01 00:05:00,52.4,47.7,30.12,East,101,6.0,6.0,84,0.00,,,0.00,Wunderground v.1.15,2012-12-31 22:05:00,
2013-01-01 00:20:00,52.5,47.8,30.12,ENE,78,7.0,11.0,84,0.00,,,0.00,Wunderground v.1.15,2012-12-31 22:20:00,
2013-01-01 00:25:00,52.5,47.8,30.12,ESE,106,7.0,11.0,84,0.00,,,0.00,Wunderground v.1.15,2012-12-31 22:25:00,
2013-01-01 00:31:00,52.5,47.8,30.12,ESE,107,6.0,11.0,84,0.00,,,0.00,Wunderground v.1.15,2012-12-31 22:31:00,
2013-01-01 00:40:00,52.5,47.8,30.12,East,96,6.0,9.0,84,0.00,,,0.00,Wunderground v.1.15,2012-12-31 22:40:00,
2013-01-01 00:50:00,52.5,47.8,30.12,ESE,107,6.0,10.0,84,0.00,,,0.00,Wunderground v.1.15,2012-12-31 22:50:00,
2013-01-01 00:55:00,52.5,47.8,30.12,ESE,119,7.0,10.0,84,0.00,,,0.00,Wunderground v.1.15,2012-12-31 22:55:00,
2013-01-01 01:01:00,52.5,47.8,30.12,East,94,7.0,10.0,84,0.00,,,0.00,Wunderground v.1.15,2012-12-31 23:01:00,
2013-01-01 01:10:00,52.5,47.8,30.11,East,98,8.0,8.0,84,0.00,,,0.00,Wunderground v.1.15,2012-12-31 23:10:00,
2013-01-01 01:16:00,52.5,47.8,30.11,ESE,110,7.0,8.0,84,0.00,,,0.00,Wunderground v.1.15,2012-12-31 23:16:00,
2013-01-01 01:25:00,52.5,47.5,30.11,East,81,6.0,6.0,83,0.00,,,0.00,Wunderground v.1.15,2012-12-31 23:25:00,
2013-01-01 01:35:00,52.4,47.4,30.11,East,86,3.0,4.0,83,0.00,,,0.00,Wunderground v.1.15,2012-12-31 23:35:00,
2013-01-01 01:40:00,52.4,47.4,30.11,East,86,3.0,4.0,83,0.00,,,0.00,Wunderground v.1.15,2012-12-31 23:40:00,
2013-01-01 01:45:00,52.4,47.7,30.11,East,86,1.0,1.0,84,0.00,,,0.00,Wunderground v.1.15,2012-12-31 23:45:00,
2013-01-01 01:55:00,52.5,47.8,30.11,East,86,1.0,2.0,84,0.00,,,0.00,Wunderground v.1.15,2012-12-31 23:55:00,
2013-01-01 02:05:00,52.7,47.7,30.11,East,96,3.0,3.0,83,0.00,,,0.00,Wunderground v.1.15,2013-01-01 00:05:00,
2013-01-01 02:10:00,52.7,47.7,30.11,ENE,65,2.0,14.0,83,0.00,,,0.00,Wunderground v.1.15,2013-01-01 00:10:00,
2013-01-01 02:16:00,52.7,47.7,30.11,East,87,2.0,2.0,83,0.00,,,0.00,Wunderground v.1.15,2013-01-01 00:16:00,
2013-01-01 02:25:00,52.8,47.8,30.11,East,90,3.0,6.0,83,0.00,,,0.00,Wunderground v.1.15,2013-01-01 00:25:00,
2013-01-01 02:35:00,52.7,47.7,30.11,East,81,3.0,6.0,83,0.00,,,0.00,Wunderground v.1.15,2013-01-01 00:35:00,
2013-01-01 02:45:00,52.6,47.6,30.11,East,88,4.0,4.0,83,0.00,,,0.00,Wunderground v.1.15,2013-01-01 00:45:00,
2013-01-01 02:55:00,52.6,47.6,30.11,East,89,2.0,5.0,83,0.00,,,0.00,Wunderground v.1.15,2013-01-01 00:55:00,
2013-01-01 03:01:00,52.7,47.7,30.11,East,96,4.0,7.0,83,0.00,,,0.00,Wunderground v.1.15,2013-01-01 01:01:00,
2013-01-01 03:10:00,52.6,47.6,30.11,East,91,7.0,7.0,83,0.00,,,0.00,Wunderground v.1.15,2013-01-01 01:10:00,
2013-01-01 03:16:00,52.7,47.7,30.10,ESE,113,6.0,7.0,83,0.00,,,0.00,Wunderground v.1.15,2013-01-01 01:16:00,
2013-01-01 03:25:00,52.6,47.6,30.10,East,101,6.0,6.0,83,0.00,,,0.00,Wunderground v.1.15,2013-01-01 01:25:00,
2013-01-01 03:35:00,52.6,47.6,30.10,East,90,5.0,5.0,83,0.00,,,0.00,Wunderground v.1.15,2013-01-01 01:35:00,
2013-01-01 03:40:00,52.6,47.6,30.10,East,91,5.0,6.0,83,0.00,,,0.00,Wunderground v.1.15,2013-01-01 01:40:00,
2013-01-01 03:46:00,52.5,47.5,30.10,ESE,111,7.0,7.0,83,0.00,,,0.00,Wunderground v.1.15,2013-01-01 01:46:00,
2013-01-01 03:55:00,52.4,47.4,30.10,East,96,7.0,7.0,83,0.00,,,0.00,Wunderground v.1.15,2013-01-01 01:55:00,
2013-01-01 04:05:00,52.3,47.3,30.10,ESE,107,5.0,5.0,83,0.00,,,0.00,Wunderground v.1.15,2013-01-01 02:05:00,
2013-01-01 04:10:00,52.3,47.3,30.10,ESE,111,5.0,6.0,83,0.00,,,0.00,Wunderground v.1.15,2013-01-01 02:10:00,
2013-01-01 04:16:00,52.2,47.5,30.09,East,99,7.0,15.0,84,0.00,,,0.00,Wunderground v.1.15,2013-01-01 02:16:00,
2013-01-01 04:25:00,52.1,47.4,30.09,ENE,68,8.0,8.0,84,0.00,,,0.00,Wunderground v.1.15,2013-01-01 02:25:00,
2013-01-01 04:35:00,52.0,47.3,30.09,ESE,103,7.0,7.0,84,0.00,,,0.00,Wunderground v.1.15,2013-01-01 02:35:00,
2013-01-01 04:40:00,52.0,47.6,30.09,ENE,78,7.0,8.0,85,0.00,,,0.00,Wunderground v.1.15,2013-01-01 02:40:00,
2013-01-01 04:46:00,51.9,47.5,30.09,ESE,117,8.0,9.0,85,0.00,,,0.00,Wunderground v.1.15,2013-01-01 02:46:00,
2013-01-01 04:55:00,52.0,47.6,30.09,SE,125,9.0,11.0,85,0.00,,,0.00,Wunderground v.1.15,2013-01-01 02:55:00,
2013-01-01 05:01:00,52.0,47.3,30.09,East,101,9.0,16.0,84,0.00,,,0.00,Wunderground v.1.15,2013-01-01 03:01:00,
2013-01-01 05:10:00,52.1,47.4,30.09,ESE,109,7.0,16.0,84,0.00,,,0.00,Wunderground v.1.15,2013-01-01 03:10:00,
2013-01-01 05:20:00,52.2,47.5,30.09,ESE,117,7.0,8.0,84,0.00,,,0.00,Wunderground v.1.15,2013-01-01 03:20:00,
2013-01-01 05:25:00,52.3,47.6,30.09,East,88,8.0,8.0,84,0.00,,,0.00,Wunderground v.1.15,2013-01-01 03:25:00,
2013-01-01 05:30:00,52.3,47.6,30.09,ESE,118,8.0,8.0,84,0.00,,,0.00,Wunderground v.1.15,2013-01-01 03:30:00,
2013-01-01 05:40:00,52.4,47.7,30.08,East,91,8.0,9.0,84,0.00,,,0.00,Wunderground v.1.15,2013-01-01 03:40:00,
2013-01-01 05:46:00,52.4,47.7,30.09,ESE,122,6.0,9.0,84,0.00,,,0.00,Wunderground v.1.15,2013-01-01 03:46:00,
2013-01-01 05:55:00,52.4,47.7,30.09,ESE,121,5.0,7.0,84,0.00,,,0.00,Wunderground v.1.15,2013-01-01 03:55:00,
2013-01-01 06:05:00,52.4,47.7,30.09,ESE,111,6.0,6.0,84,0.00,,,0.00,Wunderground v.1.15,2013-01-01 04:05:00,
2013-01-01 06:15:00,52.4,47.7,30.09,ESE,114,2.0,2.0,84,0.00,,,0.00,Wunderground v.1.15,2013-01-01 04:15:00,
2013-01-01 06:25:00,52.4,47.7,30.09,ESE,121,4.0,4.0,84,0.00,,,0.00,Wunderground v.1.15,2013-01-01 04:25:00,
2013-01-01 06:31:00,52.4,47.7,30.09,ESE,109,5.0,6.0,84,0.00,,,0.00,Wunderground v.1.15,2013-01-01 04:31:00,
2013-01-01 06:40:00,52.4,47.7,30.09,ESE,106,5.0,6.0,84,0.00,,,0.00,Wunderground v.1.15,2013-01-01 04:40:00,
2013-01-01 06:46:00,52.4,47.7,30.09,ESE,116,5.0,5.0,84,0.00,,,0.00,Wunderground v.1.15,2013-01-01 04:46:00,
2013-01-01 06:55:00,52.3,47.6,30.09,ESE,117,4.0,5.0,84,0.00,,,0.00,Wunderground v.1.15,2013-01-01 04:55:00,
2013-01-01 07:05:00,52.3,47.6,30.09,East,97,2.0,2.0,84,0.00,,,0.00,Wunderground v.1.15,2013-01-01 05:05:00,
2013-01-01 07:15:00,52.1,47.4,30.09,ENE,65,2.0,6.0,84,0.00,,,0.00,Wunderground v.1.15,2013-01-01 05:15:00,
2013-01-01 07:25:00,52.0,47.3,30.09,ENE,71,5.0,5.0,84,0.00,,,0.00,Wunderground v.1.15,2013-01-01 05:25:00,
2013-01-01 07:31:00,51.9,47.2,30.10,ENE,66,4.0,5.0,84,0.00,,,0.00,Wunderground v.1.15,2013-01-01 05:31:00,
2013-01-01 07:40:00,51.8,47.1,30.10,ENE,66,4.0,4.0,84,0.00,,,0.00,Wunderground v.1.15,2013-01-01 05:40:00,
2013-01-01 07:45:00,51.8,47.1,30.10,ENE,72,4.0,5.0,84,0.00,,,0.00,Wunderground v.1.15,2013-01-01 05:45:00,
2013-01-01 07:55:00,51.9,47.2,30.10,East,88,4.0,9.0,84,0.00,,,0.00,Wunderground v.1.15,2013-01-01 05:55:00,
2013-01-01 08:05:00,52.0,47.6,30.10,ENE,76,5.0,5.0,85,0.00,,,0.00,Wunderground v.1.15,2013-01-01 06:05:00,
2013-01-01 08:10:00,52.0,47.6,30.11,ENE,74,6.0,9.0,85,0.00,,,0.00,Wunderground v.1.15,2013-01-01 06:10:00,
2013-01-01 08:16:00,52.0,47.3,30.11,ESE,105,6.0,7.0,84,0.00,,,0.00,Wunderground v.1.15,2013-01-01 06:16:00,
2013-01-01 08:25:00,52.1,47.4,30.11,East,81,5.0,5.0,84,0.00,,,0.00,Wunderground v.1.15,2013-01-01 06:25:00,
2013-01-01 08:31:00,52.1,47.4,30.11,East,80,4.0,5.0,84,0.00,,,0.00,Wunderground v.1.15,2013-01-01 06:31:00,
2013-01-01 08:40:00,52.3,47.6,30.12,ENE,75,4.0,5.0,84,0.00,,,0.00,Wunderground v.1.15,2013-01-01 06:40:00,
2013-01-01 08:45:00,52.4,47.7,30.12,ESE,102,4.0,4.0,84,0.00,,,0.00,Wunderground v.1.15,2013-01-01 06:45:00,
2013-01-01 08:55:00,52.6,47.9,30.12,ESE,111,2.0,2.0,84,0.00,,,0.00,Wunderground v.1.15,2013-01-01 06:55:00,
2013-01-01 09:05:00,52.9,48.2,30.12,ESE,107,1.0,1.0,84,0.00,,,0.00,Wunderground v.1.15,2013-01-01 07:05:00,
2013-01-01 09:10:00,53.1,48.1,30.12,ESE,107,0.0,1.0,83,0.00,,,0.00,Wunderground v.1.15,2013-01-01 07:10:00,
2013-01-01 09:20:00,53.8,48.8,30.12,ESE,107,0.0,0.0,83,0.00,,,0.00,Wunderground v.1.15,2013-01-01 07:20:00,
2013-01-01 09:25:00,54.1,48.7,30.12,ESE,107,0.0,0.0,82,0.00,,,0.00,Wunderground v.1.15,2013-01-01 07:25:00,
2013-01-01 09:31:00,55.0,49.6,30.12,ESE,106,0.0,0.0,82,0.00,,,0.00,Wunderground v.1.15,2013-01-01 07:31:00,
2013-01-01 09:40:00,54.7,49.0,30.12,ESE,107,0.0,0.0,81,0.00,,,0.00,Wunderground v.1.15,2013-01-01 07:40:00,
2013-01-01 09:45:00,54.9,49.2,30.12,ESE,107,0.0,0.0,81,0.00,,,0.00,Wunderground v.1.15,2013-01-01 07:45:00,
2013-01-01 09:55:00,54.7,49.0,30.13,ESE,107,0.0,0.0,81,0.00,,,0.00,Wunderground v.1.15,2013-01-01 07:55:00,
2013-01-01 10:01:00,55.0,48.9,30.13,ESE,107,0.0,0.0,80,0.00,,,0.00,Wunderground v.1.15,2013-01-01 08:01:00,
2013-01-01 10:10:00,55.9,49.8,30.13,East,96,0.0,11.0,80,0.00,,,0.00,Wunderground v.1.15,2013-01-01 08:10:00,
2013-01-01 10:15:00,56.4,50.0,30.13,ENE,65,0.0,11.0,79,0.00,,,0.00,Wunderground v.1.15,2013-01-01 08:15:00,
2013-01-01 10:25:00,56.5,49.7,30.13,ENE,65,0.0,0.0,78,0.00,,,0.00,Wunderground v.1.15,2013-01-01 08:25:00,
2013-01-01 10:31:00,56.3,49.5,30.12,ENE,65,0.0,0.0,78,0.00,,,0.00,Wunderground v.1.15,2013-01-01 08:31:00,
2013-01-01 10:40:00,56.5,49.7,30.12,East,84,1.0,4.0,78,0.00,,,0.00,Wunderground v.1.15,2013-01-01 08:40:00,
2013-01-01 10:45:00,56.6,49.8,30.12,ESE,120,1.0,4.0,78,0.00,,,0.00,Wunderground v.1.15,2013-01-01 08:45:00,
2013-01-01 10:55:00,56.7,49.9,30.13,ESE,111,1.0,1.0,78,0.00,,,0.00,Wunderground v.1.15,2013-01-01 08:55:00,
2013-01-01 11:01:00,56.9,50.5,30.13,ESE,122,1.0,1.0,79,0.00,,,0.00,Wunderground v.1.15,2013-01-01 09:01:00,
2013-01-01 11:10:00,57.5,50.7,30.13,ESE,110,0.0,0.0,78,0.00,,,0.00,Wunderground v.1.15,2013-01-01 09:10:00,
2013-01-01 11:16:00,57.5,50.7,30.12,East,84,0.0,1.0,78,0.00,,,0.00,Wunderground v.1.15,2013-01-01 09:16:00,
2013-01-01 11:25:00,57.1,50.3,30.12,East,84,0.0,4.0,78,0.00,,,0.00,Wunderground v.1.15,2013-01-01 09:25:00,
2013-01-01 11:31:00,57.0,50.2,30.12,ESE,103,1.0,5.0,78,0.00,,,0.00,Wunderground v.1.15,2013-01-01 09:31:00,
2013-01-01 11:40:00,56.7,50.3,30.12,ENE,74,4.0,9.0,79,0.00,,,0.00,Wunderground v.1.15,2013-01-01 09:40:00,
2013-01-01 11:50:00,56.7,50.3,30.12,ESE,118,3.0,3.0,79,0.00,,,0.00,Wunderground v.1.15,2013-01-01 09:50:00,
2013-01-01 11:55:00,56.7,50.3,30.11,East,99,3.0,3.0,79,0.00,,,0.00,Wunderground v.1.15,2013-01-01 09:55:00,
2013-01-01 12:05:00,56.8,50.4,30.11,East,86,4.0,4.0,79,0.00,,,0.00,Wunderground v.1.15,2013-01-01 10:05:00,
2013-01-01 12:10:00,57.0,50.5,30.11,East,85,5.0,5.0,79,0.00,,,0.00,Wunderground v.1.15,2013-01-01 10:10:00,
2013-01-01 12:16:00,57.2,50.7,30.11,ESE,102,4.0,4.0,79,0.00,,,0.00,Wunderground v.1.15,2013-01-01 10:16:00,
2013-01-01 12:25:00,57.6,51.1,30.11,ENE,58,2.0,2.0,79,0.00,,,0.00,Wunderground v.1.15,2013-01-01 10:25:00,
2013-01-01 12:35:00,57.3,50.5,30.10,NE,40,4.0,5.0,78,0.00,,,0.00,Wunderground v.1.15,2013-01-01 10:35:00,
2013-01-01 12:40:00,57.4,50.9,30.11,East,99,4.0,7.0,79,0.00,,,0.00,Wunderground v.1.15,2013-01-01 10:40:00,
2013-01-01 12:50:00,57.8,51.0,30.10,East,92,3.0,4.0,78,0.00,,,0.00,Wunderground v.1.15,2013-01-01 10:50:00,
2013-01-01 12:55:00,58.0,51.2,30.10,SE,140,2.0,4.0,78,0.00,,,0.00,Wunderground v.1.15,2013-01-01 10:55:00,
2013-01-01 13:01:00,58.3,51.5,30.10,ESE,110,1.0,5.0,78,0.00,,,0.00,Wunderground v.1.15,2013-01-01 11:01:00,
2013-01-01 13:10:00,58.1,51.3,30.09,ENE,73,3.0,5.0,78,0.00,,,0.00,Wunderground v.1.15,2013-01-01 11:10:00,
2013-01-01 13:16:00,58.2,51.4,30.09,ESE,113,4.0,5.0,78,0.00,,,0.00,Wunderground v.1.15,2013-01-01 11:16:00,
2013-01-01 13:25:00,58.1,50.9,30.09,ESE,104,4.0,10.0,77,0.00,,,0.00,Wunderground v.1.15,2013-01-01 11:25:00,
2013-01-01 13:31:00,57.9,50.7,30.09,NNE,32,4.0,4.0,77,0.00,,,0.00,Wunderground v.1.15,2013-01-01 11:31:00,
2013-01-01 13:40:00,57.9,50.7,30.09,East,101,4.0,4.0,77,0.00,,,0.00,Wunderground v.1.15,2013-01-01 11:40:00,
2013-01-01 13:45:00,57.8,51.0,30.09,East,84,4.0,4.0,78,0.00,,,0.00,Wunderground v.1.15,2013-01-01 11:45:00,
2013-01-01 13:55:00,57.8,51.0,30.09,ENE,63,3.0,9.0,78,0.00,,,0.00,Wunderground v.1.15,2013-01-01 11:55:00,
2013-01-01 14:01:00,57.8,51.0,30.08,ENE,78,5.0,5.0,78,0.00,,,0.00,Wunderground v.1.15,2013-01-01 12:01:00,
2013-01-01 14:10:00,58.0,51.2,30.08,ENE,69,4.0,11.0,78,0.00,,,0.00,Wunderground v.1.15,2013-01-01 12:10:00,
2013-01-01 14:20:00,58.2,51.0,30.09,ESE,105,4.0,4.0,77,0.00,,,0.00,Wunderground v.1.15,2013-01-01 12:20:00,
2013-01-01 14:25:00,58.3,51.1,30.09,ENE,62,3.0,4.0,77,0.00,,,0.00,Wunderground v.1.15,2013-01-01 12:25:00,
2013-01-01 14:35:00,58.1,50.9,30.09,East,100,4.0,8.0,77,0.00,,,0.00,Wunderground v.1.15,2013-01-01 12:35:00,
2013-01-01 14:46:00,57.6,50.4,30.09,NE,51,5.0,8.0,77,0.00,,,0.00,Wunderground v.1.15,2013-01-01 12:46:00,
2013-01-01 14:55:00,57.4,50.6,30.09,East,88,5.0,6.0,78,0.00,,,0.00,Wunderground v.1.15,2013-01-01 12:55:00,
2013-01-01 15:00:00,57.3,50.5,30.09,East,91,5.0,5.0,78,0.00,,,0.00,Wunderground v.1.15,2013-01-01 13:00:00,
2013-01-01 15:10:00,57.2,50.4,30.10,NE,49,5.0,5.0,78,0.00,,,0.00,Wunderground v.1.15,2013-01-01 13:10:00,
2013-01-01 15:15:00,57.2,50.4,30.10,East,86,5.0,5.0,78,0.00,,,0.00,Wunderground v.1.15,2013-01-01 13:15:00,
2013-01-01 15:25:00,57.1,50.6,30.10,East,98,4.0,6.0,79,0.00,,,0.00,Wunderground v.1.15,2013-01-01 13:25:00,
2013-01-01 15:31:00,57.0,50.5,30.10,East,86,5.0,6.0,79,0.00,,,0.00,Wunderground v.1.15,2013-01-01 13:31:00,
2013-01-01 15:40:00,56.9,50.5,30.10,ESE,105,6.0,9.0,79,0.00,,,0.00,Wunderground v.1.15,2013-01-01 13:40:00,
2013-01-01 15:50:00,56.8,50.4,30.11,East,93,5.0,5.0,79,0.00,,,0.00,Wunderground v.1.15,2013-01-01 13:50:00,
2013-01-01 16:00:00,56.7,50.6,30.11,East,88,5.0,5.0,80,0.00,,,0.00,Wunderground v.1.15,2013-01-01 14:00:00,
2013-01-01 16:10:00,56.6,50.5,30.11,East,91,3.0,5.0,80,0.00,,,0.00,Wunderground v.1.15,2013-01-01 14:10:00,
2013-01-01 16:16:00,56.6,50.5,30.11,East,98,4.0,5.0,80,0.00,,,0.00,Wunderground v.1.15,2013-01-01 14:16:00,
2013-01-01 16:25:00,56.5,50.4,30.11,ENE,76,4.0,6.0,80,0.00,,,0.00,Wunderground v.1.15,2013-01-01 14:25:00,
2013-01-01 16:35:00,56.5,50.4,30.11,ESE,122,3.0,7.0,80,0.00,,,0.00,Wunderground v.1.15,2013-01-01 14:35:00,
2013-01-01 16:46:00,56.4,50.3,30.11,ESE,120,4.0,5.0,80,0.00,,,0.00,Wunderground v.1.15,2013-01-01 14:46:00,
2013-01-01 16:55:00,56.4,50.3,30.11,ESE,109,3.0,6.0,80,0.00,,,0.00,Wunderground v.1.15,2013-01-01 14:55:00,
2013-01-01 17:01:00,56.3,50.2,30.11,ESE,106,4.0,4.0,80,0.00,,,0.00,Wunderground v.1.15,2013-01-01 15:01:00,
2013-01-01 17:10:00,56.1,50.0,30.11,East,101,5.0,5.0,80,0.00,,,0.00,Wunderground v.1.15,2013-01-01 15:10:00,
2013-01-01 17:16:00,56.1,50.0,30.11,ESE,111,5.0,5.0,80,0.00,,,0.00,Wunderground v.1.15,2013-01-01 15:16:00,
2013-01-01 17:25:00,56.1,50.0,30.11,ESE,120,4.0,5.0,80,0.00,,,0.00,Wunderground v.1.15,2013-01-01 15:25:00,
2013-01-01 17:35:00,56.1,50.0,30.11,ESE,103,3.0,4.0,80,0.00,,,0.00,Wunderground v.1.15,2013-01-01 15:35:00,
2013-01-01 17:45:00,56.0,49.9,30.11,SSE,148,4.0,4.0,80,0.00,,,0.00,Wunderground v.1.15,2013-01-01 15:45:00,
2013-01-01 17:55:00,56.0,50.3,30.11,South,169,5.0,5.0,81,0.00,,,0.00,Wunderground v.1.15,2013-01-01 15:55:00,
2013-01-01 18:01:00,55.9,50.2,30.11,SSE,161,4.0,4.0,81,0.00,,,0.00,Wunderground v.1.15,2013-01-01 16:01:00,
2013-01-01 18:10:00,55.8,50.1,30.11,SSE,156,2.0,10.0,81,0.00,,,0.00,Wunderground v.1.15,2013-01-01 16:10:00,
2013-01-01 18:20:00,55.7,50.0,30.12,South,174,1.0,5.0,81,0.00,,,0.00,Wunderground v.1.15,2013-01-01 16:20:00,
2013-01-01 18:25:00,55.6,49.9,30.12,South,171,1.0,5.0,81,0.00,,,0.00,Wunderground v.1.15,2013-01-01 16:25:00,
2013-01-01 18:31:00,55.5,50.1,30.12,South,171,1.0,1.0,82,0.00,,,0.00,Wunderground v.1.15,2013-01-01 16:31:00,
2013-01-01 18:40:00,55.5,50.1,30.13,South,171,0.0,1.0,82,0.00,,,0.00,Wunderground v.1.15,2013-01-01 16:40:00,
2013-01-01 18:45:00,55.4,50.0,30.13,SSE,168,0.0,0.0,82,0.00,,,0.00,Wunderground v.1.15,2013-01-01 16:45:00,
2013-01-01 18:55:00,55.3,49.9,30.13,SSE,168,0.0,0.0,82,0.00,,,0.00,Wunderground v.1.15,2013-01-01 16:55:00,
2013-01-01 19:01:00,55.2,49.8,30.13,South,169,0.0,0.0,82,0.00,,,0.00,Wunderground v.1.15,2013-01-01 17:01:00,
2013-01-01 19:10:00,55.0,49.6,30.14,SSE,164,0.0,0.0,82,0.00,,,0.00,Wunderground v.1.15,2013-01-01 17:10:00,
2013-01-01 19:16:00,55.0,49.6,30.14,SSE,154,1.0,3.0,82,0.00,,,0.00,Wunderground v.1.15,2013-01-01 17:16:00,
2013-01-01 19:25:00,54.7,49.3,30.14,ENE,76,1.0,3.0,82,0.00,,,0.00,Wunderground v.1.15,2013-01-01 17:25:00,
2013-01-01 19:35:00,54.4,49.3,30.14,ENE,75,3.0,4.0,83,0.00,,,0.00,Wunderground v.1.15,2013-01-01 17:35:00,
2013-01-01 19:40:00,54.3,49.2,30.14,ENE,63,3.0,4.0,83,0.00,,,0.00,Wunderground v.1.15,2013-01-01 17:40:00,
2013-01-01 19:46:00,54.2,49.1,30.14,ENE,65,2.0,2.0,83,0.00,,,0.00,Wunderground v.1.15,2013-01-01 17:46:00,
2013-01-01 19:55:00,54.1,49.1,30.14,ENE,65,1.0,2.0,83,0.00,,,0.00,Wunderground v.1.15,2013-01-01 17:55:00,
2013-01-01 20:01:00,54.0,49.0,30.14,ENE,62,1.0,2.0,83,0.00,,,0.00,Wunderground v.1.15,2013-01-01 18:01:00,
2013-01-01 20:10:00,54.0,49.0,30.14,ENE,59,1.0,1.0,83,0.00,,,0.00,Wunderground v.1.15,2013-01-01 18:10:00,
2013-01-01 20:20:00,53.9,49.2,30.15,ENE,59,0.0,0.0,84,0.00,,,0.00,Wunderground v.1.15,2013-01-01 18:20:00,
2013-01-01 20:25:00,53.9,49.2,30.15,East,82,1.0,3.0,84,0.00,,,0.00,Wunderground v.1.15,2013-01-01 18:25:00,
2013-01-01 20:31:00,53.8,49.1,30.15,East,82,3.0,3.0,84,0.00,,,0.00,Wunderground v.1.15,2013-01-01 18:31:00,
2013-01-01 20:40:00,53.6,48.9,30.15,East,82,2.0,2.0,84,0.00,,,0.00,Wunderground v.1.15,2013-01-01 18:40:00,
2013-01-01 20:50:00,53.6,48.9,30.15,ESE,113,2.0,5.0,84,0.00,,,0.00,Wunderground v.1.15,2013-01-01 18:50:00,
2013-01-01 20:55:00,53.7,49.0,30.15,ESE,117,3.0,5.0,84,0.00,,,0.00,Wunderground v.1.15,2013-01-01 18:55:00,
2013-01-01 21:00:00,53.8,49.1,30.15,SE,128,3.0,5.0,84,0.00,,,0.00,Wunderground v.1.15,2013-01-01 19:00:00,
2013-01-01 21:10:00,53.9,49.2,30.15,SSE,155,5.0,6.0,84,0.00,,,0.00,Wunderground v.1.15,2013-01-01 19:10:00,
2013-01-01 21:15:00,53.9,49.2,30.15,SE,138,4.0,6.0,84,0.00,,,0.00,Wunderground v.1.15,2013-01-01 19:15:00,
2013-01-01 21:25:00,53.8,49.1,30.15,SE,135,5.0,7.0,84,0.00,,,0.00,Wunderground v.1.15,2013-01-01 19:25:00,
2013-01-01 21:35:00,53.6,48.9,30.16,ESE,115,4.0,5.0,84,0.00,,,0.00,Wunderground v.1.15,2013-01-01 19:35:00,
2013-01-01 21:45:00,53.4,49.0,30.16,ESE,119,4.0,5.0,85,0.00,,,0.00,Wunderground v.1.15,2013-01-01 19:45:00,
2013-01-01 21:55:00,53.4,49.0,30.16,SE,132,5.0,5.0,85,0.00,,,0.00,Wunderground v.1.15,2013-01-01 19:55:00,
2013-01-01 22:01:00,53.4,49.0,30.16,SE,146,5.0,5.0,85,0.00,,,0.00,Wunderground v.1.15,2013-01-01 20:01:00,
2013-01-01 22:10:00,53.3,48.9,30.16,SE,146,4.0,7.0,85,0.00,,,0.00,Wunderground v.1.15,2013-01-01 20:10:00,
2013-01-01 22:15:00,53.2,48.8,30.16,SE,130,3.0,7.0,85,0.00,,,0.00,Wunderground v.1.15,2013-01-01 20:15:00,
2013-01-01 22:25:00,53.0,48.9,30.16,ESE,121,2.0,4.0,86,0.00,,,0.00,Wunderground v.1.15,2013-01-01 20:25:00,
2013-01-01 22:30:00,52.9,48.8,30.16,ESE,122,3.0,3.0,86,0.00,,,0.00,Wunderground v.1.15,2013-01-01 20:30:00,
2013-01-01 22:40:00,52.8,48.7,30.16,ESE,111,4.0,4.0,86,0.00,,,0.00,Wunderground v.1.15,2013-01-01 20:40:00,
2013-01-01 22:46:00,52.6,48.5,30.16,ESE,104,3.0,4.0,86,0.00,,,0.00,Wunderground v.1.15,2013-01-01 20:46:00,
2013-01-01 22:55:00,52.4,48.3,30.16,ESE,112,4.0,4.0,86,0.00,,,0.00,Wunderground v.1.15,2013-01-01 20:55:00,
2013-01-01 23:05:00,52.3,48.5,30.16,East,89,4.0,4.0,87,0.00,,,0.00,Wunderground v.1.15,2013-01-01 21:05:00,
2013-01-01 23:10:00,52.3,48.5,30.16,East,79,4.0,5.0,87,0.00,,,0.00,Wunderground v.1.15,2013-01-01 21:10:00,
2013-01-01 23:20:00,52.5,48.7,30.16,ESE,105,5.0,6.0,87,0.00,,,0.00,Wunderground v.1.15,2013-01-01 21:20:00,
2013-01-01 23:25:00,52.5,48.7,30.16,ESE,115,5.0,6.0,87,0.00,,,0.00,Wunderground v.1.15,2013-01-01 21:25:00,
2013-01-01 23:30:00,52.6,48.8,30.16,ESE,115,5.0,5.0,87,0.00,,,0.00,Wunderground v.1.15,2013-01-01 21:30:00,
2013-01-01 23:40:00,52.6,48.8,30.16,ESE,103,5.0,5.0,87,0.00,,,0.00,Wunderground v.1.15,2013-01-01 21:40:00,
2013-01-01 23:46:00,52.6,48.8,30.16,ESE,106,4.0,5.0,87,0.00,,,0.00,Wunderground v.1.15,2013-01-01 21:46:00,
2013-01-01 23:55:00,52.5,48.7,30.15,ESE,105,4.0,5.0,87,0.00,,,0.00,Wunderground v.1.15,2013-01-01 21:55:00,